createdAt,value
2023-01-02T00:00:51.121Z,8.70
2023-01-02T00:03:44.350Z,10.60
2023-01-02T00:06:38.350Z,13.00
2023-01-02T00:09:31.471Z,11.50
2023-01-02T00:12:24.489Z,9.70
2023-01-02T00:15:18.739Z,7.70
2023-01-02T00:18:12.001Z,10.60
2023-01-02T00:21:07.808Z,10.20
2023-01-02T00:24:01.236Z,15.30
2023-01-02T00:26:54.396Z,11.70
2023-01-02T00:29:47.500Z,13.50
2023-01-02T00:32:40.771Z,18.20
2023-01-02T00:35:33.906Z,15.30
2023-01-02T00:38:26.997Z,12.80
2023-01-02T00:41:21.368Z,17.00
2023-01-02T00:44:14.655Z,15.10
2023-01-02T00:47:07.902Z,17.80
2023-01-02T00:50:01.232Z,15.90
2023-01-02T00:52:54.304Z,17.60
2023-01-02T00:55:48.800Z,20.00
2023-01-02T00:58:41.935Z,11.60
2023-01-02T01:01:35.119Z,14.10
2023-01-02T01:04:28.478Z,14.10
2023-01-02T01:07:24.403Z,11.10
2023-01-02T01:10:17.798Z,11.80
2023-01-02T01:13:11.199Z,9.80
2023-01-02T01:16:09.874Z,9.80
2023-01-02T01:19:02.981Z,9.40
2023-01-02T01:21:56.318Z,12.30
2023-01-02T01:24:49.407Z,11.50
2023-01-02T01:27:42.477Z,13.00
2023-01-02T01:30:35.620Z,12.60
2023-01-02T01:33:28.853Z,8.90
2023-01-02T01:36:23.886Z,9.50
2023-01-02T01:39:16.536Z,8.70
2023-01-02T01:42:11.843Z,8.60
2023-01-02T01:45:05.615Z,10.60
2023-01-02T01:47:59.589Z,10.50
2023-01-02T01:50:52.120Z,9.90
2023-01-02T01:53:45.391Z,16.70
2023-01-02T01:56:42.828Z,11.50
2023-01-02T01:59:36.607Z,10.50
2023-01-02T02:02:29.837Z,15.20
2023-01-02T02:05:24.858Z,9.40
2023-01-02T02:08:21.239Z,11.90
2023-01-02T02:11:14.942Z,15.20
2023-01-02T02:14:07.471Z,10.90
2023-01-02T02:17:04.955Z,14.30
2023-01-02T02:20:14.454Z,11.80
2023-01-02T02:23:54.084Z,11.30
2023-01-02T02:27:17.733Z,12.30
2023-01-02T02:30:15.537Z,12.10
2023-01-02T02:33:33.421Z,11.30
2023-01-02T02:36:32.429Z,10.10
2023-01-02T02:39:31.438Z,12.40
2023-01-02T02:42:29.660Z,10.60
2023-01-02T02:45:32.999Z,10.60
2023-01-02T02:48:29.429Z,10.40
2023-01-02T02:51:25.822Z,14.80
2023-01-02T02:54:21.655Z,9.50
2023-01-02T02:57:15.682Z,9.80
2023-01-02T03:00:11.745Z,11.30
2023-01-02T03:03:14.540Z,10.10
2023-01-02T03:06:26.217Z,10.80
2023-01-02T03:09:26.903Z,10.80
2023-01-02T03:12:28.513Z,11.00
2023-01-02T03:15:25.713Z,12.40
2023-01-02T03:18:24.641Z,11.50
2023-01-02T03:21:20.497Z,9.40
2023-01-02T03:24:15.009Z,8.40
2023-01-02T03:27:10.365Z,10.10
2023-01-02T03:30:04.481Z,12.30
2023-01-02T03:32:59.569Z,10.30
2023-01-02T03:35:56.252Z,9.30
2023-01-02T03:38:52.377Z,6.40
2023-01-02T03:41:47.030Z,12.70
2023-01-02T03:44:44.325Z,7.80
2023-01-02T03:47:41.982Z,7.00
2023-01-02T03:50:41.498Z,7.00
2023-01-02T03:53:36.317Z,7.70
2023-01-02T03:56:34.081Z,5.60
2023-01-02T03:59:35.557Z,6.10
2023-01-02T04:02:34.506Z,8.30
2023-01-02T04:05:30.692Z,9.40
2023-01-02T04:11:20.569Z,7.80
2023-01-02T04:14:16.256Z,11.10
2023-01-02T04:17:08.913Z,9.00
2023-01-02T04:20:03.838Z,8.20
2023-01-02T04:22:58.853Z,9.20
2023-01-02T04:25:53.751Z,7.30
2023-01-02T04:28:46.227Z,15.20
2023-01-02T04:31:42.750Z,8.80
2023-01-02T04:34:37.909Z,10.90
2023-01-02T04:37:35.536Z,8.60
2023-01-02T04:40:30.679Z,10.50
2023-01-02T04:43:24.985Z,9.70
2023-01-02T04:46:18.044Z,12.00
2023-01-02T04:49:11.410Z,11.20
2023-01-02T04:52:04.618Z,8.10
2023-01-02T04:54:57.549Z,9.50
2023-01-02T04:57:50.812Z,10.70
2023-01-02T05:00:43.798Z,6.50
2023-01-02T05:03:36.967Z,7.80
2023-01-02T05:06:30.019Z,10.30
2023-01-02T05:09:23.072Z,11.00
2023-01-02T05:12:16.336Z,10.20
2023-01-02T05:15:11.621Z,9.90
2023-01-02T05:18:04.454Z,10.10
2023-01-02T05:21:02.748Z,9.50
2023-01-02T05:23:55.264Z,7.70
2023-01-02T05:26:48.440Z,7.70
2023-01-02T05:29:41.408Z,10.30
2023-01-02T05:32:34.517Z,11.40
2023-01-02T05:35:32.573Z,9.30
2023-01-02T05:38:26.542Z,7.70
2023-01-02T05:41:19.661Z,10.50
2023-01-02T05:44:14.006Z,9.90
2023-01-02T05:47:09.788Z,10.60
2023-01-02T05:50:05.783Z,9.10
2023-01-02T05:52:59.209Z,13.10
2023-01-02T05:55:52.193Z,9.60
2023-01-02T05:58:46.605Z,12.60
2023-01-02T06:01:39.190Z,11.50
2023-01-02T06:04:32.357Z,10.00
2023-01-02T06:07:25.667Z,9.80
2023-01-02T06:10:18.982Z,9.60
2023-01-02T06:13:12.270Z,9.90
2023-01-02T06:16:06.834Z,9.50
2023-01-02T06:18:59.298Z,10.00
2023-01-02T06:21:52.281Z,9.40
2023-01-02T06:24:45.391Z,10.90
2023-01-02T06:27:38.466Z,9.50
2023-01-02T06:30:31.571Z,9.80
2023-01-02T06:33:24.619Z,8.10
2023-01-02T06:36:19.183Z,9.90
2023-01-02T06:39:12.269Z,7.50
2023-01-02T06:42:05.344Z,9.30
2023-01-02T06:44:58.410Z,9.60
2023-01-02T06:47:52.656Z,5.80
2023-01-02T06:50:45.286Z,7.80
2023-01-02T06:53:39.019Z,9.50
2023-01-02T06:56:31.471Z,8.60
2023-01-02T06:59:24.526Z,9.30
2023-01-02T07:02:17.656Z,9.20
2023-01-02T07:05:12.888Z,10.00
2023-01-02T07:08:05.622Z,6.50
2023-01-02T07:11:03.355Z,10.40
2023-01-02T07:13:57.133Z,8.40
2023-01-02T07:16:50.202Z,8.20
2023-01-02T07:19:46.009Z,9.70
2023-01-02T07:22:42.949Z,8.80
2023-01-02T07:25:40.840Z,8.90
2023-01-02T07:28:37.761Z,7.00
2023-01-02T07:31:30.912Z,7.60
2023-01-02T07:34:24.115Z,11.70
2023-01-02T07:37:17.165Z,11.00
2023-01-02T07:40:13.659Z,11.00
2023-01-02T07:43:06.638Z,15.10
2023-01-02T07:46:06.151Z,12.10
2023-01-02T07:48:59.333Z,14.70
2023-01-02T07:51:51.829Z,15.50
2023-01-02T07:54:44.974Z,15.70
2023-01-02T07:57:38.091Z,13.50
2023-01-02T08:00:31.176Z,14.30
2023-01-02T08:03:24.632Z,13.70
2023-01-02T08:06:19.152Z,16.20
2023-01-02T08:09:13.219Z,9.40
2023-01-02T08:12:07.565Z,11.30
2023-01-02T08:15:00.266Z,11.30
2023-01-02T08:17:53.468Z,14.50
2023-01-02T08:20:46.516Z,14.00
2023-01-02T08:23:43.289Z,13.60
2023-01-02T08:26:36.552Z,13.80
2023-01-02T08:29:29.605Z,10.10
2023-01-02T08:32:22.626Z,15.20
2023-01-02T08:35:15.916Z,17.00
2023-01-02T08:38:09.583Z,17.10
2023-01-02T08:41:02.952Z,12.10
2023-01-02T08:43:56.004Z,10.20
2023-01-02T08:46:49.228Z,9.20
2023-01-02T08:49:42.367Z,9.30
2023-01-02T08:52:35.504Z,12.80
2023-01-02T08:55:28.692Z,9.60
2023-01-02T08:58:21.776Z,10.00
2023-01-02T09:01:14.912Z,10.40
2023-01-02T09:04:12.522Z,9.70
2023-01-02T09:07:06.073Z,9.40
2023-01-02T09:09:59.129Z,12.50
2023-01-02T09:12:52.217Z,7.30
2023-01-02T09:15:48.044Z,11.80
2023-01-02T09:18:42.331Z,10.20
2023-01-02T09:21:35.854Z,10.70
2023-01-02T09:24:28.946Z,9.70
2023-01-02T09:27:21.933Z,9.60
2023-01-02T09:30:16.537Z,10.20
2023-01-02T09:33:09.067Z,7.70
2023-01-02T09:36:04.297Z,8.70
2023-01-02T09:38:58.181Z,7.80
2023-01-02T09:41:52.831Z,7.80
2023-01-02T09:44:46.950Z,8.00
2023-01-02T09:47:39.495Z,7.30
2023-01-02T09:50:32.718Z,7.90
2023-01-02T09:53:25.874Z,12.00
2023-01-02T09:56:23.066Z,9.00
2023-01-02T09:59:20.016Z,12.70
2023-01-02T10:02:24.260Z,11.10
2023-01-02T10:05:52.581Z,8.70
2023-01-02T10:09:00.184Z,8.30
2023-01-02T10:12:00.049Z,11.40
2023-01-02T10:14:57.632Z,7.40
2023-01-02T10:17:53.236Z,10.00
2023-01-02T10:20:48.007Z,8.80
2023-01-02T10:23:43.203Z,7.30
2023-01-02T10:26:39.172Z,12.60
2023-01-02T10:29:34.143Z,12.10
2023-01-02T10:32:28.253Z,12.20
2023-01-02T10:35:37.580Z,13.80
2023-01-02T10:38:33.135Z,14.30
2023-01-02T10:41:25.620Z,10.20
2023-01-02T10:44:25.886Z,11.40
2023-01-02T10:47:25.904Z,9.90
2023-01-02T10:50:22.479Z,14.20
2023-01-02T10:53:29.590Z,9.80
2023-01-02T10:56:23.132Z,11.40
2023-01-02T10:59:24.684Z,12.90
2023-01-02T11:02:30.598Z,21.00
2023-01-02T11:05:25.651Z,15.50
2023-01-02T11:08:21.728Z,12.40
2023-01-02T11:11:18.670Z,11.50
2023-01-02T11:14:12.647Z,12.40
2023-01-02T11:17:11.698Z,13.20
2023-01-02T11:20:06.003Z,11.90
2023-01-02T11:23:01.455Z,12.90
2023-01-02T11:25:54.256Z,11.70
2023-01-02T11:28:47.517Z,10.70
2023-01-02T11:31:43.994Z,13.20
2023-01-02T11:34:39.920Z,8.60
2023-01-02T11:37:32.476Z,11.60
2023-01-02T11:40:32.875Z,10.80
2023-01-02T11:43:47.986Z,9.70
2023-01-02T11:46:41.509Z,10.90
2023-01-02T11:49:40.541Z,18.60
2023-01-02T11:52:41.377Z,11.30
2023-01-02T11:55:42.617Z,12.40
2023-01-02T11:58:40.333Z,10.10
2023-01-02T12:01:39.296Z,12.30
2023-01-02T12:04:32.318Z,10.30
2023-01-02T12:07:44.548Z,11.30
2023-01-02T12:10:50.231Z,13.40
2023-01-02T12:13:58.046Z,12.20
2023-01-02T12:16:59.753Z,14.90
2023-01-02T12:20:15.733Z,10.80
2023-01-02T12:23:28.977Z,12.80
2023-01-02T12:26:25.112Z,11.00
2023-01-02T12:29:48.898Z,13.40
2023-01-02T12:33:10.505Z,12.90
2023-01-02T12:36:31.440Z,12.90
2023-01-02T12:40:07.452Z,12.80
2023-01-02T12:43:18.206Z,12.90
2023-01-02T12:46:32.416Z,12.00
2023-01-02T12:49:54.548Z,17.60
2023-01-02T12:52:57.265Z,11.30
2023-01-02T12:55:57.089Z,12.60
2023-01-02T12:59:02.611Z,16.10
2023-01-02T13:01:59.444Z,17.60
2023-01-02T13:04:55.221Z,12.40
2023-01-02T13:07:50.168Z,13.00
2023-01-02T13:10:43.473Z,11.70
2023-01-02T13:13:37.838Z,15.90
2023-01-02T13:16:30.580Z,15.70
2023-01-02T13:19:30.487Z,12.50
2023-01-02T13:22:30.657Z,17.30
2023-01-02T13:25:23.432Z,14.90
2023-01-02T13:28:16.580Z,13.60
2023-01-02T13:31:44.921Z,14.50
2023-01-02T13:34:27.557Z,11.80
2023-01-02T13:37:23.179Z,13.30
2023-01-02T13:40:21.778Z,9.50
2023-01-02T13:43:21.313Z,13.00
2023-01-02T13:46:37.053Z,14.50
2023-01-02T13:49:27.775Z,16.70
2023-01-02T13:52:22.997Z,21.30
2023-01-02T13:55:33.318Z,11.80
2023-01-02T13:58:42.890Z,14.80
2023-01-02T14:04:53.838Z,13.00
2023-01-02T14:07:49.222Z,11.70
2023-01-02T14:10:45.532Z,11.60
2023-01-02T14:13:40.212Z,11.30
2023-01-02T14:16:54.399Z,15.00
2023-01-02T14:19:47.354Z,15.40
2023-01-02T14:22:46.019Z,15.10
2023-01-02T14:25:48.656Z,20.00
2023-01-02T14:28:42.916Z,13.60
2023-01-02T14:31:36.913Z,15.10
2023-01-02T14:34:31.255Z,12.10
2023-01-02T14:37:42.163Z,11.70
2023-01-02T14:40:40.436Z,14.10
2023-01-02T14:43:36.472Z,10.70
2023-01-02T14:46:29.664Z,10.20
2023-01-02T14:49:27.185Z,14.10
2023-01-02T14:52:26.817Z,12.30
2023-01-02T14:55:22.652Z,18.70
2023-01-02T14:58:21.249Z,12.60
2023-01-02T15:01:43.519Z,10.20
2023-01-02T15:04:39.131Z,16.50
2023-01-02T15:07:34.247Z,14.90
2023-01-02T15:10:27.542Z,13.20
2023-01-02T15:13:22.349Z,12.00
2023-01-02T15:16:15.623Z,11.10
2023-01-02T15:19:10.323Z,11.30
2023-01-02T15:22:10.032Z,14.90
2023-01-02T15:25:03.164Z,13.60
2023-01-02T15:27:58.226Z,11.40
2023-01-02T15:31:03.027Z,10.90
2023-01-02T15:33:59.935Z,14.10
2023-01-02T15:36:52.542Z,9.10
2023-01-02T15:39:47.665Z,9.00
2023-01-02T15:42:57.918Z,11.60
2023-01-02T15:45:52.842Z,11.80
2023-01-02T15:48:45.408Z,9.70
2023-01-02T15:51:40.434Z,9.50
2023-01-02T15:54:37.950Z,5.20
2023-01-02T15:57:32.948Z,10.10
2023-01-02T16:00:42.057Z,9.70
2023-01-02T16:04:01.943Z,6.10
2023-01-02T16:06:55.195Z,7.30
2023-01-02T16:09:55.357Z,11.40
2023-01-02T17:37:08.821Z,3.30
2023-01-02T17:39:59.359Z,4.70
2023-01-02T17:42:49.443Z,4.80
2023-01-02T17:45:41.046Z,2.70
2023-01-02T17:48:31.388Z,2.70
2023-01-02T17:51:22.077Z,4.10
2023-01-02T17:54:12.135Z,4.10
2023-01-02T17:57:01.584Z,3.50
2023-01-02T17:59:51.336Z,3.70
2023-01-02T18:02:41.386Z,3.40
2023-01-02T18:05:32.224Z,4.20
2023-01-02T18:08:21.418Z,6.00
2023-01-02T18:11:15.662Z,4.80
2023-01-02T18:14:11.843Z,4.70
2023-01-02T18:17:10.014Z,4.00
2023-01-02T18:19:59.217Z,4.80
2023-01-02T18:22:50.430Z,7.90
2023-01-02T18:25:41.063Z,9.30
2023-01-02T18:28:30.239Z,8.20
2023-01-02T18:31:21.938Z,7.70
2023-01-02T18:34:46.408Z,28.00
2023-01-02T18:37:30.146Z,18.20
2023-01-02T18:40:25.936Z,15.80
2023-01-02T18:43:22.898Z,22.30
2023-01-02T18:46:15.943Z,37.90
2023-01-02T18:49:14.754Z,12.50
2023-01-02T18:52:24.524Z,12.60
2023-01-02T18:55:24.059Z,7.90
2023-01-02T18:59:01.543Z,5.50
2023-01-02T19:01:52.225Z,4.50
2023-01-02T19:04:41.970Z,4.40
2023-01-02T19:07:34.409Z,5.60
2023-01-02T19:10:37.236Z,6.10
2023-01-02T19:13:33.882Z,5.30
2023-01-02T19:16:23.073Z,4.70
2023-01-02T19:19:16.619Z,4.20
2023-01-02T19:22:13.785Z,5.20
2023-01-02T19:25:08.440Z,3.20
2023-01-02T19:27:57.664Z,3.40
2023-01-02T19:30:48.048Z,2.80
2023-01-02T19:33:42.997Z,4.40
2023-01-02T19:36:36.749Z,3.30
2023-01-02T19:39:34.545Z,4.10
2023-01-02T19:42:27.508Z,4.10
2023-01-02T19:45:19.249Z,4.20
2023-01-02T19:48:09.320Z,3.60
2023-01-02T19:51:01.329Z,3.50
2023-01-02T19:53:51.704Z,3.90
2023-01-02T19:56:42.477Z,5.50
2023-01-02T19:59:32.252Z,3.20
2023-01-02T20:02:23.306Z,7.50
2023-01-02T20:05:20.849Z,4.50
2023-01-02T20:08:11.702Z,4.10
2023-01-02T20:11:01.503Z,2.30
2023-01-02T20:13:51.267Z,3.40
2023-01-02T20:16:41.221Z,2.70
2023-01-02T20:19:31.225Z,3.50
2023-01-02T20:22:21.633Z,2.60
2023-01-02T20:25:12.032Z,2.00
2023-01-02T20:28:03.495Z,3.90
2023-01-02T20:30:52.714Z,2.00
2023-01-02T20:33:42.886Z,1.60
2023-01-02T20:36:33.003Z,6.20
2023-01-02T20:39:23.068Z,6.90
2023-01-02T20:42:13.778Z,5.00
2023-01-02T20:45:07.474Z,1.90
2023-01-02T20:47:56.583Z,1.40
2023-01-02T20:50:46.170Z,1.30
2023-01-02T20:53:35.984Z,3.00
2023-01-02T20:56:26.213Z,2.30
2023-01-02T20:59:16.060Z,2.60
2023-01-02T21:02:06.059Z,1.60
2023-01-02T21:04:55.772Z,1.50
2023-01-02T21:07:44.906Z,2.10
2023-01-02T21:10:35.233Z,2.00
2023-01-02T21:13:24.399Z,2.40
2023-01-02T21:16:14.226Z,2.00
2023-01-02T21:19:04.318Z,2.00
2023-01-02T21:21:54.470Z,2.50
2023-01-02T21:24:44.283Z,1.80
2023-01-02T21:27:34.359Z,1.80
2023-01-02T21:30:24.173Z,2.40
2023-01-02T21:33:16.140Z,2.70
2023-01-02T21:36:08.911Z,2.30
2023-01-02T21:38:58.641Z,2.40
2023-01-02T21:42:08.911Z,2.70
2023-01-02T21:44:58.714Z,1.20
2023-01-02T21:47:48.068Z,1.50
2023-01-02T21:50:37.844Z,1.30
2023-01-02T21:53:27.756Z,3.10
2023-01-02T21:56:17.768Z,4.50
2023-01-02T21:59:07.490Z,1.10
2023-01-02T22:01:59.159Z,1.30
2023-01-02T22:04:48.757Z,2.20
2023-01-02T22:07:42.341Z,1.50
2023-01-02T22:10:32.494Z,2.60
2023-01-02T22:13:22.410Z,4.10
2023-01-02T22:16:12.230Z,2.70
2023-01-02T22:19:01.867Z,1.80
2023-01-02T22:21:51.896Z,1.80
2023-01-02T22:24:44.625Z,1.80
2023-01-02T22:27:34.920Z,1.10
2023-01-02T22:30:33.396Z,1.20
2023-01-02T22:33:24.520Z,1.00
2023-01-02T22:36:14.579Z,1.50
2023-01-02T22:43:06.643Z,2.00
2023-01-02T22:45:51.974Z,3.00
2023-01-02T22:48:42.608Z,3.00
2023-01-02T22:52:05.490Z,3.20
2023-01-02T22:54:42.246Z,1.10
2023-01-02T22:57:32.311Z,2.10
2023-01-02T23:00:22.979Z,1.30
2023-01-02T23:03:13.722Z,2.00
2023-01-02T23:06:03.219Z,4.00
2023-01-02T23:08:52.704Z,0.70
2023-01-02T23:11:41.895Z,3.60
2023-01-02T23:14:32.741Z,1.40
2023-01-02T23:17:40.562Z,1.30
2023-01-02T23:20:30.765Z,1.00
2023-01-02T23:23:20.581Z,3.20
2023-01-02T23:26:10.516Z,1.70
2023-01-02T23:29:08.569Z,1.70
2023-01-02T23:31:59.908Z,2.50
2023-01-02T23:34:50.111Z,2.00
2023-01-02T23:37:40.032Z,1.60
2023-01-02T23:40:34.153Z,2.80
2023-01-02T23:43:24.360Z,1.40
2023-01-02T23:46:14.153Z,2.00
2023-01-02T23:49:04.155Z,1.50
2023-01-02T23:51:53.888Z,3.90
2023-01-02T23:54:43.893Z,1.50
2023-01-02T23:57:33.962Z,1.30
